Latest Weather Observations for St Kilda Harbour RMYS

IDV60801

Issued at 7:32 am EDT Friday 21 January 2022 (issued every 10 minutes, with the page automatically refreshed every 10 minutes)

About weather observations | Map of weather stations | Latest weather observations for VIC | Other Formats
Station Details ID: 086220 Name: ST KILDA HARBOUR - RMYS Lat: -37.86 Lon: 144.96 Height: 6.4 m
Data from the previous 72 hours. | See also: Recent months at St Kilda Harbour RMYS
Date/Time
EDT
Temp
°C
App
Temp
°C
Dew
Point
°C
Rel
Hum
%
Delta-T
°C
Wind Press
QNH
hPa
Press
MSL
hPa
Rain since
9am
mm
Dir  Spd
km/h
Gust
km/h
Spd
kts
Gust
kts
21/07:30am - - - - - N 11 22 6 12 - - -
21/07:00am - - - - - N 19 35 10 19 - - -
21/06:30am - - - - - N 9 15 5 8 - - -
21/06:00am - - - - - NNE 2 4 1 2 - - -
21/05:30am - - - - - NNW 6 9 3 5 - - -
21/05:00am - - - - - NNW 13 15 7 8 - - -
21/04:30am - - - - - NW 9 15 5 8 - - -
21/04:00am - - - - - NNW 7 11 4 6 - - -
21/03:30am - - - - - NNW 13 17 7 9 - - -
21/03:00am - - - - - N 9 15 5 8 - - -
21/02:30am - - - - - NNW 11 15 6 8 - - -
21/02:00am - - - - - ENE 4 7 2 4 - - -
21/01:30am - - - - - ESE 9 13 5 7 - - -
21/01:00am - - - - - E 4 6 2 3 - - -
21/12:30am - - - - - ESE 6 9 3 5 - - -
21/12:00am - - - - - ENE 6 7 3 4 - - -
 
Date/Time
EDT
Temp
°C
App
Temp
°C
Dew
Point
°C
Rel
Hum
%
Delta-T
°C
Wind Press
QNH
hPa
Press
MSL
hPa
Rain since
9am
mm
Dir  Spd
km/h
Gust
km/h
Spd
kts
Gust
kts
20/11:30pm - - - - - ENE 11 17 6 9 - - -
20/11:00pm - - - - - E 13 20 7 11 - - -
20/10:30pm - - - - - E 17 28 9 15 - - -
20/10:00pm - - - - - ESE 26 35 14 19 - - -
20/09:30pm - - - - - ESE 24 33 13 18 - - -
20/09:00pm - - - - - ESE 30 41 16 22 - - -
20/08:30pm - - - - - ESE 26 37 14 20 - - -
20/08:00pm - - - - - ESE 24 35 13 19 - - -
20/07:30pm - - - - - SE 28 39 15 21 - - -
20/07:00pm - - - - - SE 22 33 12 18 - - -
20/06:30pm - - - - - SE 22 30 12 16 - - -
20/06:00pm - - - - - ESE 22 30 12 16 - - -
20/05:30pm - - - - - SE 24 37 13 20 - - -
20/05:00pm - - - - - SE 24 37 13 20 - - -
20/04:30pm - - - - - SE 26 39 14 21 - - -
20/04:00pm - - - - - SSE 22 33 12 18 - - -
20/03:30pm - - - - - SSE 17 35 9 19 - - -
20/03:00pm - - - - - W 19 22 10 12 - - -
20/02:30pm - - - - - WSW 20 22 11 12 - - -
20/02:00pm - - - - - SW 17 19 9 10 - - -
20/01:30pm - - - - - SW 15 15 8 8 - - -
20/01:00pm - - - - - SW 13 17 7 9 - - -
20/12:30pm - - - - - SW 13 17 7 9 - - -
20/12:00pm - - - - - SW 15 19 8 10 - - -
20/11:30am - - - - - SSW 15 19 8 10 - - -
20/11:00am - - - - - SSW 11 15 6 8 - - -
20/10:30am - - - - - SW 7 11 4 6 - - -
20/10:00am - - - - - SSW 6 9 3 5 - - -
20/09:30am - - - - - SSW 4 7 2 4 - - -
20/09:00am - - - - - N 4 7 2 4 - - -
20/08:30am - - - - - NE 7 13 4 7 - - -
20/08:00am - - - - - NNE 6 9 3 5 - - -
20/07:30am - - - - - E 11 15 6 8 - - -
20/07:00am - - - - - ESE 9 13 5 7 - - -
20/06:30am - - - - - E 6 9 3 5 - - -
20/06:00am - - - - - ESE 11 15 6 8 - - -
20/05:30am - - - - - ESE 11 15 6 8 - - -
20/05:00am - - - - - ESE 9 15 5 8 - - -
20/04:30am - - - - - ESE 4 7 2 4 - - -
20/04:00am - - - - - E 7 11 4 6 - - -
20/03:30am - - - - - ENE 9 17 5 9 - - -
20/03:00am - - - - - E 13 22 7 12 - - -
20/02:30am - - - - - E 24 37 13 20 - - -
20/02:00am - - - - - ESE 30 43 16 23 - - -
20/01:30am - - - - - E 30 39 16 21 - - -
20/01:00am - - - - - E 26 35 14 19 - - -
20/12:30am - - - - - ESE 28 37 15 20 - - -
20/12:13am - - - - - ESE 28 46 15 25 - - -
20/12:00am - - - - - ESE 26 37 14 20 - - -
 
Date/Time
EDT
Temp
°C
App
Temp
°C
Dew
Point
°C
Rel
Hum
%
Delta-T
°C
Wind Press
QNH
hPa
Press
MSL
hPa
Rain since
9am
mm
Dir  Spd
km/h
Gust
km/h
Spd
kts
Gust
kts
19/11:30pm - - - - - ESE 24 35 13 19 - - -
19/11:00pm - - - - - ESE 24 33 13 18 - - -
19/10:30pm - - - - - ESE 22 35 12 19 - - -
19/10:00pm - - - - - ESE 30 43 16 23 - - -
19/09:39pm - - - - - ESE 28 46 15 25 - - -
19/09:30pm - - - - - ESE 30 46 16 25 - - -
19/09:00pm - - - - - ESE 20 41 11 22 - - -
19/08:30pm - - - - - ESE 24 37 13 20 - - -
19/08:00pm - - - - - ESE 33 46 18 25 - - -
19/07:30pm - - - - - ESE 33 50 18 27 - - -
19/07:00pm - - - - - E 30 46 16 25 - - -
19/06:40pm - - - - - E 35 56 19 30 - - -
19/06:30pm - - - - - ESE 39 52 21 28 - - -
19/06:00pm - - - - - ESE 37 63 20 34 - - -
19/05:32pm - - - - - ESE 39 61 21 33 - - -
19/05:30pm - - - - - ESE 37 54 20 29 - - -
19/05:01pm - - - - - ESE 41 61 22 33 - - -
19/05:00pm - - - - - ESE 43 61 23 33 - - -
19/04:30pm - - - - - ESE 44 63 24 34 - - -
19/04:12pm - - - - - ESE 44 65 24 35 - - -
19/04:00pm - - - - - ESE 43 61 23 33 - - -
19/03:32pm - - - - - ESE 41 59 22 32 - - -
19/03:30pm - - - - - ESE 41 54 22 29 - - -
19/03:17pm - - - - - ESE 39 59 21 32 - - -
19/03:00pm - - - - - ESE 44 57 24 31 - - -
19/02:38pm - - - - - SE 44 63 24 34 - - -
19/02:30pm - - - - - SE 46 65 25 35 - - -
19/02:09pm - - - - - ESE 39 59 21 32 - - -
19/02:00pm - - - - - ESE 41 59 22 32 - - -
19/01:34pm - - - - - ESE 39 57 21 31 - - -
19/01:30pm - - - - - ESE 41 56 22 30 - - -
19/01:00pm - - - - - ESE 35 54 19 29 - - -
19/12:53pm - - - - - ESE 33 54 18 29 - - -
19/12:30pm - - - - - E 30 43 16 23 - - -
19/12:00pm - - - - - ESE 39 59 21 32 - - -
19/11:37am - - - - - ESE 41 59 22 32 - - -
19/11:30am - - - - - ESE 41 57 22 31 - - -
19/11:02am - - - - - ESE 35 57 19 31 - - -
19/11:00am - - - - - ESE 35 52 19 28 - - -
19/10:30am - - - - - ESE 33 48 18 26 - - -
19/10:12am - - - - - ESE 30 52 16 28 - - -
19/10:00am - - - - - ESE 30 43 16 23 - - -
19/09:30am - - - - - ESE 24 37 13 20 - - -
19/09:00am - - - - - ESE 26 41 14 22 - - -
19/08:30am - - - - - ESE 26 37 14 20 - - -
19/08:00am - - - - - ESE 24 37 13 20 - - -
19/07:30am - - - - - ESE 24 41 13 22 - - -
19/07:00am - - - - - ESE 24 41 13 22 - - -
19/06:30am - - - - - ESE 22 35 12 19 - - -
19/06:00am - - - - - ESE 20 35 11 19 - - -
19/05:30am - - - - - SE 22 32 12 17 - - -
19/05:00am - - - - - SE 19 28 10 15 - - -
19/04:30am - - - - - SE 24 32 13 17 - - -
19/04:00am - - - - - SSE 26 37 14 20 - - -
19/03:30am - - - - - SSE 30 37 16 20 - - -
19/03:00am - - - - - SSE 26 35 14 19 - - -
19/02:30am - - - - - SSE 22 32 12 17 - - -
19/02:00am - - - - - SE 19 26 10 14 - - -
19/01:30am - - - - - SE 19 26 10 14 - - -
19/01:00am - - - - - SE 15 20 8 11 - - -
19/12:30am - - - - - SE 17 22 9 12 - - -
19/12:00am - - - - - SE 20 30 11 16 - - -
 
Date/Time
EDT
Temp
°C
App
Temp
°C
Dew
Point
°C
Rel
Hum
%
Delta-T
°C
Wind Press
QNH
hPa
Press
MSL
hPa
Rain since
9am
mm
Dir  Spd
km/h
Gust
km/h
Spd
kts
Gust
kts
18/11:30pm - - - - - SSE 22 30 12 16 - - -
18/11:00pm - - - - - SSE 24 33 13 18 - - -
18/10:30pm - - - - - SSE 24 33 13 18 - - -
18/10:00pm - - - - - SSE 28 35 15 19 - - -
18/09:30pm - - - - - SSE 30 39 16 21 - - -
18/09:00pm - - - - - SSE 33 43 18 23 - - -
18/08:30pm - - - - - S 35 43 19 23 - - -
18/08:00pm - - - - - S 35 44 19 24 - - -
18/07:30pm - - - - - SSE 35 43 19 23 - - -
18/07:00pm - - - - - S 37 50 20 27 - - -
18/06:30pm - - - - - S 37 44 20 24 - - -
18/06:00pm - - - - - S 33 43 18 23 - - -
18/05:30pm - - - - - S 33 43 18 23 - - -
18/05:00pm - - - - - S 37 43 20 23 - - -
18/04:30pm - - - - - S 37 44 20 24 - - -
18/04:00pm - - - - - S 37 44 20 24 - - -
18/03:30pm - - - - - S 39 48 21 26 - - -
18/03:00pm - - - - - S 35 41 19 22 - - -
18/02:30pm - - - - - S 35 43 19 23 - - -
18/02:00pm - - - - - S 32 39 17 21 - - -
18/01:30pm - - - - - S 32 41 17 22 - - -
18/01:00pm - - - - - S 32 39 17 21 - - -
18/12:30pm - - - - - S 28 35 15 19 - - -
18/12:00pm - - - - - S 28 35 15 19 - - -
18/11:30am - - - - - S 24 30 13 16 - - -
18/11:00am - - - - - S 20 26 11 14 - - -
18/10:30am - - - - - S 20 26 11 14 - - -
18/10:00am - - - - - S 19 28 10 15 - - -
18/09:30am - - - - - SSE 17 24 9 13 - - -
18/09:00am - - - - - SSE 15 22 8 12 - - -
18/08:30am - - - - - SE 15 22 8 12 - - -
18/08:00am - - - - - SE 17 20 9 11 - - -

Other formats

Comma delimited format used in spreadsheet applications
http://www.bom.gov.au/fwo/IDV60801/IDV60801.95864.axf

JavaScript Object Notation format (JSON) in row-major order
http://www.bom.gov.au/fwo/IDV60801/IDV60801.95864.json

Data quality

Most of these data are generated automatically and are frequently updated. Quality checks on data are not normally performed. It is possible for incorrect values to appear. Refer to information at About Latest Weather Observations and please check the disclaimer before using these data.